sensor_id;sensor_type;location;lat;lon;timestamp;pressure;altitude;pressure_sealevel;temperature;humidity
27643;BME280;15053;48.618;10.024;2022-11-15T00:00:58;94144.66;;;9.97;85.13
27643;BME280;15053;48.618;10.024;2022-11-15T00:03:43;94142.84;;;9.98;85.13
27643;BME280;15053;48.618;10.024;2022-11-15T00:06:29;94142.56;;;9.99;84.98
27643;BME280;15053;48.618;10.024;2022-11-15T00:09:14;94137.63;;;9.98;84.86
27643;BME280;15053;48.618;10.024;2022-11-15T00:11:59;94129.34;;;9.96;84.71
27643;BME280;15053;48.618;10.024;2022-11-15T00:14:44;94134.81;;;9.94;84.92
27643;BME280;15053;48.618;10.024;2022-11-15T00:17:28;94135.59;;;9.95;85.10
27643;BME280;15053;48.618;10.024;2022-11-15T00:20:14;94135.13;;;9.93;84.82
27643;BME280;15053;48.618;10.024;2022-11-15T00:22:59;94135.69;;;9.90;84.96
27643;BME280;15053;48.618;10.024;2022-11-15T00:25:44;94140.88;;;9.90;85.33
27643;BME280;15053;48.618;10.024;2022-11-15T00:28:29;94138.84;;;9.87;85.26
27643;BME280;15053;48.618;10.024;2022-11-15T00:31:14;94132.69;;;9.83;85.24
27643;BME280;15053;48.618;10.024;2022-11-15T00:33:59;94131.69;;;9.79;86.04
27643;BME280;15053;48.618;10.024;2022-11-15T00:36:44;94119.78;;;9.78;85.86
27643;BME280;15053;48.618;10.024;2022-11-15T00:39:29;94122.63;;;9.76;86.00
27643;BME280;15053;48.618;10.024;2022-11-15T00:42:14;94115.13;;;9.75;86.06
27643;BME280;15053;48.618;10.024;2022-11-15T00:44:59;94107.81;;;9.77;85.86
27643;BME280;15053;48.618;10.024;2022-11-15T00:47:44;94105.69;;;9.79;85.84
27643;BME280;15053;48.618;10.024;2022-11-15T00:50:31;94101.28;;;9.79;85.75
27643;BME280;15053;48.618;10.024;2022-11-15T00:53:16;94102.59;;;9.77;85.52
27643;BME280;15053;48.618;10.024;2022-11-15T00:56:03;94112.44;;;9.80;85.31
27643;BME280;15053;48.618;10.024;2022-11-15T00:58:48;94116.66;;;9.76;85.13
27643;BME280;15053;48.618;10.024;2022-11-15T01:01:33;94105.78;;;9.74;85.13
27643;BME280;15053;48.618;10.024;2022-11-15T01:04:18;94105.28;;;9.72;85.35
27643;BME280;15053;48.618;10.024;2022-11-15T01:07:03;94102.00;;;9.66;85.25
27643;BME280;15053;48.618;10.024;2022-11-15T01:09:48;94101.50;;;9.64;85.45
27643;BME280;15053;48.618;10.024;2022-11-15T01:12:33;94092.44;;;9.62;85.41
27643;BME280;15053;48.618;10.024;2022-11-15T01:15:18;94088.88;;;9.58;85.45
27643;BME280;15053;48.618;10.024;2022-11-15T01:18:03;94082.91;;;9.57;85.42
27643;BME280;15053;48.618;10.024;2022-11-15T01:20:48;94089.91;;;9.57;85.47
27643;BME280;15053;48.618;10.024;2022-11-15T01:23:33;94079.59;;;9.52;85.88
27643;BME280;15053;48.618;10.024;2022-11-15T01:26:18;94078.81;;;9.51;85.86
27643;BME280;15053;48.618;10.024;2022-11-15T01:29:03;94087.88;;;9.54;85.86
27643;BME280;15053;48.618;10.024;2022-11-15T01:31:49;94081.44;;;9.51;85.96
27643;BME280;15053;48.618;10.024;2022-11-15T01:34:34;94075.53;;;9.45;85.81
27643;BME280;15053;48.618;10.024;2022-11-15T01:37:18;94067.25;;;9.43;86.37
27643;BME280;15053;48.618;10.024;2022-11-15T01:40:04;94070.91;;;9.42;86.70
27643;BME280;15053;48.618;10.024;2022-11-15T01:42:49;94066.78;;;9.41;86.62
27643;BME280;15053;48.618;10.024;2022-11-15T01:45:34;94067.34;;;9.38;86.64
27643;BME280;15053;48.618;10.024;2022-11-15T01:48:20;94057.59;;;9.30;86.67
27643;BME280;15053;48.618;10.024;2022-11-15T01:51:09;94056.03;;;9.29;86.66
27643;BME280;15053;48.618;10.024;2022-11-15T01:53:58;94058.22;;;9.22;86.67
27643;BME280;15053;48.618;10.024;2022-11-15T01:56:53;94050.50;;;9.17;86.82
27643;BME280;15053;48.618;10.024;2022-11-15T01:59:41;94049.03;;;9.11;86.80
27643;BME280;15053;48.618;10.024;2022-11-15T02:02:27;94043.16;;;9.06;86.71
27643;BME280;15053;48.618;10.024;2022-11-15T02:05:12;94042.22;;;8.97;86.67
27643;BME280;15053;48.618;10.024;2022-11-15T02:07:57;94046.22;;;8.89;86.52
27643;BME280;15053;48.618;10.024;2022-11-15T02:10:45;94043.19;;;8.82;87.09
27643;BME280;15053;48.618;10.024;2022-11-15T02:13:31;94033.25;;;8.70;86.79
27643;BME280;15053;48.618;10.024;2022-11-15T02:16:35;94036.88;;;8.69;87.25
27643;BME280;15053;48.618;10.024;2022-11-15T02:22:38;94047.75;;;8.53;86.81
27643;BME280;15053;48.618;10.024;2022-11-15T02:25:37;94045.75;;;8.45;87.26
27643;BME280;15053;48.618;10.024;2022-11-15T02:34:00;94021.06;;;8.28;87.18
27643;BME280;15053;48.618;10.024;2022-11-15T02:36:49;94023.13;;;8.26;87.54
27643;BME280;15053;48.618;10.024;2022-11-15T02:39:49;94018.97;;;8.25;87.32
27643;BME280;15053;48.618;10.024;2022-11-15T02:42:54;94023.13;;;8.26;87.46
27643;BME280;15053;48.618;10.024;2022-11-15T02:46:03;94016.38;;;8.25;87.47
27643;BME280;15053;48.618;10.024;2022-11-15T02:48:51;94011.50;;;8.24;87.30
27643;BME280;15053;48.618;10.024;2022-11-15T02:51:36;94011.25;;;8.20;87.45
27643;BME280;15053;48.618;10.024;2022-11-15T02:54:22;94013.09;;;8.20;87.71
27643;BME280;15053;48.618;10.024;2022-11-15T02:57:11;93995.78;;;8.15;87.71
27643;BME280;15053;48.618;10.024;2022-11-15T03:08:57;93998.53;;;8.00;88.08
27643;BME280;15053;48.618;10.024;2022-11-15T03:11:46;93992.34;;;7.96;88.14
27643;BME280;15053;48.618;10.024;2022-11-15T03:14:34;93990.88;;;7.90;88.07
27643;BME280;15053;48.618;10.024;2022-11-15T03:17:45;93996.38;;;7.84;89.20
27643;BME280;15053;48.618;10.024;2022-11-15T03:20:27;94000.28;;;7.81;89.55
27643;BME280;15053;48.618;10.024;2022-11-15T03:23:12;94004.97;;;7.79;90.02
27643;BME280;15053;48.618;10.024;2022-11-15T03:25:58;94003.97;;;7.75;89.94
27643;BME280;15053;48.618;10.024;2022-11-15T03:28:46;94000.16;;;7.67;90.33
27643;BME280;15053;48.618;10.024;2022-11-15T03:31:34;93999.66;;;7.65;90.93
27643;BME280;15053;48.618;10.024;2022-11-15T03:34:39;93995.88;;;7.58;90.74
27643;BME280;15053;48.618;10.024;2022-11-15T03:37:31;94000.03;;;7.54;91.21
27643;BME280;15053;48.618;10.024;2022-11-15T03:40:19;93997.50;;;7.49;91.07
27643;BME280;15053;48.618;10.024;2022-11-15T03:43:08;93998.28;;;7.49;90.63
27643;BME280;15053;48.618;10.024;2022-11-15T03:46:17;93991.59;;;7.43;91.25
27643;BME280;15053;48.618;10.024;2022-11-15T03:49:07;93994.50;;;7.37;92.11
27643;BME280;15053;48.618;10.024;2022-11-15T03:51:52;93997.13;;;7.32;91.06
27643;BME280;15053;48.618;10.024;2022-11-15T03:54:47;93988.38;;;7.23;91.54
27643;BME280;15053;48.618;10.024;2022-11-15T03:57:32;93988.97;;;7.20;92.22
27643;BME280;15053;48.618;10.024;2022-11-15T04:00:16;93993.06;;;7.21;92.44
27643;BME280;15053;48.618;10.024;2022-11-15T04:03:02;93996.94;;;7.23;92.08
27643;BME280;15053;48.618;10.024;2022-11-15T04:05:47;93997.75;;;7.19;92.18
27643;BME280;15053;48.618;10.024;2022-11-15T04:08:31;93991.03;;;7.18;92.67
27643;BME280;15053;48.618;10.024;2022-11-15T04:11:16;93981.19;;;7.20;92.78
27643;BME280;15053;48.618;10.024;2022-11-15T04:14:01;93985.84;;;7.18;92.49
27643;BME280;15053;48.618;10.024;2022-11-15T04:16:45;93981.19;;;7.20;92.39
27643;BME280;15053;48.618;10.024;2022-11-15T04:19:30;93973.97;;;7.17;92.17
27643;BME280;15053;48.618;10.024;2022-11-15T04:22:34;93976.31;;;7.13;92.60
27643;BME280;15053;48.618;10.024;2022-11-15T04:25:38;93971.97;;;7.08;93.16
27643;BME280;15053;48.618;10.024;2022-11-15T04:28:23;93976.63;;;7.06;92.84
27643;BME280;15053;48.618;10.024;2022-11-15T04:31:08;93977.69;;;7.05;92.72
27643;BME280;15053;48.618;10.024;2022-11-15T04:33:53;93974.81;;;7.07;92.74
27643;BME280;15053;48.618;10.024;2022-11-15T04:36:38;93970.16;;;7.04;92.52
27643;BME280;15053;48.618;10.024;2022-11-15T04:39:42;93968.34;;;7.04;92.98
27643;BME280;15053;48.618;10.024;2022-11-15T04:42:27;93959.56;;;7.05;93.63
27643;BME280;15053;48.618;10.024;2022-11-15T04:45:12;93962.13;;;7.05;93.58
27643;BME280;15053;48.618;10.024;2022-11-15T04:47:57;93957.22;;;7.04;93.04
27643;BME280;15053;48.618;10.024;2022-11-15T04:50:42;93952.53;;;7.06;93.63
27643;BME280;15053;48.618;10.024;2022-11-15T04:53:27;93954.31;;;7.10;94.07
27643;BME280;15053;48.618;10.024;2022-11-15T04:56:11;93951.19;;;7.13;93.86
27643;BME280;15053;48.618;10.024;2022-11-15T04:58:56;93949.09;;;7.16;94.14
27643;BME280;15053;48.618;10.024;2022-11-15T05:01:41;93951.19;;;7.13;93.87
27643;BME280;15053;48.618;10.024;2022-11-15T05:04:28;93945.97;;;7.19;94.50
27643;BME280;15053;48.618;10.024;2022-11-15T05:07:13;93947.72;;;7.23;94.48
27643;BME280;15053;48.618;10.024;2022-11-15T05:09:59;93941.75;;;7.28;94.81
27643;BME280;15053;48.618;10.024;2022-11-15T05:12:44;93948.41;;;7.34;94.51
27643;BME280;15053;48.618;10.024;2022-11-15T05:15:28;93938.03;;;7.39;93.95
27643;BME280;15053;48.618;10.024;2022-11-15T05:18:13;93937.97;;;7.44;94.12
27643;BME280;15053;48.618;10.024;2022-11-15T05:21:09;93939.44;;;7.50;93.85
27643;BME280;15053;48.618;10.024;2022-11-15T05:23:54;93943.31;;;7.52;93.83
27643;BME280;15053;48.618;10.024;2022-11-15T05:26:39;93936.28;;;7.53;93.19
27643;BME280;15053;48.618;10.024;2022-11-15T05:29:23;93932.13;;;7.57;93.72
27643;BME280;15053;48.618;10.024;2022-11-15T05:32:08;93924.84;;;7.59;92.70
27643;BME280;15053;48.618;10.024;2022-11-15T05:34:54;93934.66;;;7.62;93.08
27643;BME280;15053;48.618;10.024;2022-11-15T05:37:39;93933.06;;;7.66;92.78
27643;BME280;15053;48.618;10.024;2022-11-15T05:40:25;93929.69;;;7.65;92.44
27643;BME280;15053;48.618;10.024;2022-11-15T05:43:10;93921.44;;;7.63;92.66
27643;BME280;15053;48.618;10.024;2022-11-15T05:45:55;93921.44;;;7.63;92.29
27643;BME280;15053;48.618;10.024;2022-11-15T05:48:42;93922.47;;;7.62;92.40
27643;BME280;15053;48.618;10.024;2022-11-15T05:51:28;93918.06;;;7.63;92.39
27643;BME280;15053;48.618;10.024;2022-11-15T05:54:14;93914.69;;;7.62;91.83
27643;BME280;15053;48.618;10.024;2022-11-15T05:56:59;93913.94;;;7.62;92.36
27643;BME280;15053;48.618;10.024;2022-11-15T05:59:44;93915.25;;;7.59;91.54
27643;BME280;15053;48.618;10.024;2022-11-15T06:02:29;93915.53;;;7.58;91.67
27643;BME280;15053;48.618;10.024;2022-11-15T06:05:14;93909.78;;;7.61;91.39
27643;BME280;15053;48.618;10.024;2022-11-15T06:07:59;93915.75;;;7.61;92.22
27643;BME280;15053;48.618;10.024;2022-11-15T06:10:44;93913.16;;;7.61;91.19
27643;BME280;15053;48.618;10.024;2022-11-15T06:13:28;93911.09;;;7.58;91.10
27643;BME280;15053;48.618;10.024;2022-11-15T06:16:14;93906.47;;;7.55;91.08
27643;BME280;15053;48.618;10.024;2022-11-15T06:18:59;93911.94;;;7.54;91.10
27643;BME280;15053;48.618;10.024;2022-11-15T06:21:44;93910.91;;;7.55;91.35
27643;BME280;15053;48.618;10.024;2022-11-15T06:24:29;93911.41;;;7.57;91.03
27643;BME280;15053;48.618;10.024;2022-11-15T06:27:13;93911.94;;;7.54;90.97
27643;BME280;15053;48.618;10.024;2022-11-15T06:29:58;93913.28;;;7.51;90.41
27643;BME280;15053;48.618;10.024;2022-11-15T06:32:43;93914.31;;;7.50;91.32
27643;BME280;15053;48.618;10.024;2022-11-15T06:35:28;93910.94;;;7.50;91.25
27643;BME280;15053;48.618;10.024;2022-11-15T06:38:13;93917.13;;;7.54;90.94
27643;BME280;15053;48.618;10.024;2022-11-15T06:41:04;93920.19;;;7.56;91.25
27643;BME280;15053;48.618;10.024;2022-11-15T06:43:50;93914.47;;;7.59;90.54
27643;BME280;15053;48.618;10.024;2022-11-15T06:46:35;93913.16;;;7.61;90.85
27643;BME280;15053;48.618;10.024;2022-11-15T06:49:20;93914.69;;;7.62;90.39
27643;BME280;15053;48.618;10.024;2022-11-15T06:52:05;93914.94;;;7.66;90.36
27643;BME280;15053;48.618;10.024;2022-11-15T06:54:50;93915.91;;;7.70;90.23
27643;BME280;15053;48.618;10.024;2022-11-15T06:57:36;93920.31;;;7.69;90.97
27643;BME280;15053;48.618;10.024;2022-11-15T07:00:21;93921.09;;;7.70;91.01
27643;BME280;15053;48.618;10.024;2022-11-15T07:03:06;93925.50;;;7.69;90.66
27643;BME280;15053;48.618;10.024;2022-11-15T07:05:55;93918.78;;;7.68;90.14
27643;BME280;15053;48.618;10.024;2022-11-15T07:08:42;93923.13;;;7.73;90.58
27643;BME280;15053;48.618;10.024;2022-11-15T07:11:26;93920.47;;;7.78;90.78
27643;BME280;15053;48.618;10.024;2022-11-15T07:14:11;93922.50;;;7.81;90.71
27643;BME280;15053;48.618;10.024;2022-11-15T07:16:56;93924.56;;;7.84;89.76
27643;BME280;15053;48.618;10.024;2022-11-15T07:19:41;93913.63;;;7.87;90.23
27643;BME280;15053;48.618;10.024;2022-11-15T07:22:25;93921.63;;;7.91;90.30
27643;BME280;15053;48.618;10.024;2022-11-15T07:25:10;93913.56;;;7.92;90.08
27643;BME280;15053;48.618;10.024;2022-11-15T07:27:59;93900.84;;;7.96;90.25
27643;BME280;15053;48.618;10.024;2022-11-15T07:30:45;93901.06;;;7.99;89.89
27643;BME280;15053;48.618;10.024;2022-11-15T07:33:29;93908.47;;;8.06;90.10
27643;BME280;15053;48.618;10.024;2022-11-15T07:36:15;93903.50;;;8.09;90.14
27643;BME280;15053;48.618;10.024;2022-11-15T07:38:59;93909.66;;;8.13;89.85
27643;BME280;15053;48.618;10.024;2022-11-15T07:41:44;93905.47;;;8.17;89.55
27643;BME280;15053;48.618;10.024;2022-11-15T07:44:31;93905.41;;;8.22;89.59
27643;BME280;15053;48.618;10.024;2022-11-15T07:47:15;93894.72;;;8.29;89.47
27643;BME280;15053;48.618;10.024;2022-11-15T07:50:00;93895.91;;;8.37;89.36
27643;BME280;15053;48.618;10.024;2022-11-15T07:52:45;93893.72;;;8.44;89.54
27643;BME280;15053;48.618;10.024;2022-11-15T07:55:30;93886.34;;;8.51;89.20
27643;BME280;15053;48.618;10.024;2022-11-15T07:58:15;93889.34;;;8.58;89.21
27643;BME280;15053;48.618;10.024;2022-11-15T08:01:07;93889.28;;;8.63;89.01
27643;BME280;15053;48.618;10.024;2022-11-15T08:03:53;93887.66;;;8.67;88.82
27643;BME280;15053;48.618;10.024;2022-11-15T08:06:37;93879.03;;;8.71;88.74
27643;BME280;15053;48.618;10.024;2022-11-15T08:09:22;93882.53;;;8.80;88.95
27643;BME280;15053;48.618;10.024;2022-11-15T08:12:07;93871.47;;;8.88;88.82
27643;BME280;15053;48.618;10.024;2022-11-15T08:14:52;93871.03;;;9.00;88.53
27643;BME280;15053;48.618;10.024;2022-11-15T08:17:36;93860.47;;;9.10;88.18
27643;BME280;15053;48.618;10.024;2022-11-15T08:20:21;93848.56;;;9.23;88.19
27643;BME280;15053;48.618;10.024;2022-11-15T08:23:06;93840.00;;;9.36;87.91
27643;BME280;15053;48.618;10.024;2022-11-15T08:25:52;93836.91;;;9.47;87.57
27643;BME280;15053;48.618;10.024;2022-11-15T08:28:37;93831.97;;;9.60;87.01
27643;BME280;15053;48.618;10.024;2022-11-15T08:31:21;93837.84;;;9.65;86.72
27643;BME280;15053;48.618;10.024;2022-11-15T08:34:06;93833.03;;;9.72;86.55
27643;BME280;15053;48.618;10.024;2022-11-15T08:36:51;93832.34;;;9.80;86.32
27643;BME280;15053;48.618;10.024;2022-11-15T08:39:36;93827.31;;;9.84;85.73
27643;BME280;15053;48.618;10.024;2022-11-15T08:42:22;93828.50;;;9.91;85.54
27643;BME280;15053;48.618;10.024;2022-11-15T08:45:07;93829.03;;;10.02;85.55
27643;BME280;15053;48.618;10.024;2022-11-15T08:47:52;93826.69;;;10.14;84.98
27643;BME280;15053;48.618;10.024;2022-11-15T08:50:38;93826.97;;;10.26;84.16
27643;BME280;15053;48.618;10.024;2022-11-15T08:53:24;93828.28;;;10.37;83.95
27643;BME280;15053;48.618;10.024;2022-11-15T08:56:09;93832.19;;;10.48;83.88
27643;BME280;15053;48.618;10.024;2022-11-15T08:58:54;93833.31;;;10.56;83.02
27643;BME280;15053;48.618;10.024;2022-11-15T09:01:39;93840.59;;;10.68;82.75
27643;BME280;15053;48.618;10.024;2022-11-15T09:04:24;93837.13;;;10.81;81.74
27643;BME280;15053;48.618;10.024;2022-11-15T09:07:10;93836.00;;;10.95;81.10
27643;BME280;15053;48.618;10.024;2022-11-15T09:09:55;93830.69;;;11.09;80.92
27643;BME280;15053;48.618;10.024;2022-11-15T09:12:40;93830.59;;;11.22;80.29
27643;BME280;15053;48.618;10.024;2022-11-15T09:15:25;93824.97;;;11.38;79.67
27643;BME280;15053;48.618;10.024;2022-11-15T09:18:09;93817.53;;;11.53;79.37
27643;BME280;15053;48.618;10.024;2022-11-15T09:20:55;93816.53;;;11.71;78.79
27643;BME280;15053;48.618;10.024;2022-11-15T09:23:41;93807.50;;;11.86;78.80
27643;BME280;15053;48.618;10.024;2022-11-15T09:26:26;93816.72;;;12.01;77.53
27643;BME280;15053;48.618;10.024;2022-11-15T09:29:11;93812.88;;;12.07;77.10
27643;BME280;15053;48.618;10.024;2022-11-15T09:31:55;93813.66;;;12.16;77.24
27643;BME280;15053;48.618;10.024;2022-11-15T09:34:40;93820.28;;;12.22;76.13
27643;BME280;15053;48.618;10.024;2022-11-15T09:37:25;93821.50;;;12.33;76.01
27643;BME280;15053;48.618;10.024;2022-11-15T09:40:13;93804.28;;;12.49;76.60
27643;BME280;15053;48.618;10.024;2022-11-15T09:49:08;93797.47;;;12.82;74.31
27643;BME280;15053;48.618;10.024;2022-11-15T09:51:50;93793.81;;;12.66;74.71
27643;BME280;15053;48.618;10.024;2022-11-15T09:54:36;93795.22;;;12.47;74.16
27643;BME280;15053;48.618;10.024;2022-11-15T10:05:20;93783.09;;;12.42;75.93
27643;BME280;15053;48.618;10.024;2022-11-15T10:08:06;93780.91;;;12.61;75.53
27643;BME280;15053;48.618;10.024;2022-11-15T10:10:39;93772.59;;;12.76;75.76
27643;BME280;15053;48.618;10.024;2022-11-15T10:13:11;93773.00;;;12.87;75.56
27643;BME280;15053;48.618;10.024;2022-11-15T10:15:38;93772.59;;;12.76;75.04
27643;BME280;15053;48.618;10.024;2022-11-15T10:18:08;93774.47;;;12.59;74.42
27643;BME280;15053;48.618;10.024;2022-11-15T10:20:44;93771.88;;;12.41;74.70
27643;BME280;15053;48.618;10.024;2022-11-15T10:23:13;93759.31;;;12.26;74.25
27643;BME280;15053;48.618;10.024;2022-11-15T10:25:40;93762.84;;;12.13;73.71
27643;BME280;15053;48.618;10.024;2022-11-15T10:28:12;93764.38;;;12.06;73.33
27643;BME280;15053;48.618;10.024;2022-11-15T10:30:50;93763.47;;;12.02;73.42
27643;BME280;15053;48.618;10.024;2022-11-15T10:46:28;93726.91;;;12.19;72.60
27643;BME280;15053;48.618;10.024;2022-11-15T10:49:16;93727.63;;;12.36;72.64
27643;BME280;15053;48.618;10.024;2022-11-15T10:51:45;93727.44;;;12.50;72.12
27643;BME280;15053;48.618;10.024;2022-11-15T10:54:12;93720.19;;;12.64;71.94
27643;BME280;15053;48.618;10.024;2022-11-15T10:56:48;93726.75;;;12.87;70.98
27643;BME280;15053;48.618;10.024;2022-11-15T10:59:16;93716.97;;;13.05;71.01
27643;BME280;15053;48.618;10.024;2022-11-15T11:01:47;93721.91;;;13.15;69.70
27643;BME280;15053;48.618;10.024;2022-11-15T11:04:14;93727.53;;;13.26;69.53
27643;BME280;15053;48.618;10.024;2022-11-15T11:06:50;93731.56;;;13.44;68.59
27643;BME280;15053;48.618;10.024;2022-11-15T11:11:51;93720.81;;;13.66;67.02
27643;BME280;15053;48.618;10.024;2022-11-15T11:14:25;93724.19;;;13.67;65.71
27643;BME280;15053;48.618;10.024;2022-11-15T11:24:48;93709.19;;;14.17;63.71
27643;BME280;15053;48.618;10.024;2022-11-15T11:30:03;93704.47;;;15.00;59.44
27643;BME280;15053;48.618;10.024;2022-11-15T11:35:23;93695.94;;;15.40;55.40
27643;BME280;15053;48.618;10.024;2022-11-15T11:37:56;93687.94;;;15.72;55.68
27643;BME280;15053;48.618;10.024;2022-11-15T11:43:41;93672.22;;;16.43;55.24
27643;BME280;15053;48.618;10.024;2022-11-15T11:48:31;93669.31;;;16.92;53.30
27643;BME280;15053;48.618;10.024;2022-11-15T11:51:10;93658.75;;;17.23;52.36
27643;BME280;15053;48.618;10.024;2022-11-15T11:53:50;93650.91;;;17.42;51.60
27643;BME280;15053;48.618;10.024;2022-11-15T11:56:22;93652.53;;;17.47;51.45
27643;BME280;15053;48.618;10.024;2022-11-15T11:58:49;93662.47;;;17.38;51.04
27643;BME280;15053;48.618;10.024;2022-11-15T12:03:48;93661.66;;;17.18;50.94
27643;BME280;15053;48.618;10.024;2022-11-15T12:09:01;93666.50;;;16.85;51.11
27643;BME280;15053;48.618;10.024;2022-11-15T12:13:58;93674.59;;;16.48;51.23
27643;BME280;15053;48.618;10.024;2022-11-15T12:16:27;93669.41;;;16.36;51.46
27643;BME280;15053;48.618;10.024;2022-11-15T12:18:54;93668.28;;;16.37;52.00
27643;BME280;15053;48.618;10.024;2022-11-15T12:24:14;93658.53;;;16.81;51.68
27643;BME280;15053;48.618;10.024;2022-11-15T12:26:50;93664.56;;;16.82;50.81
27643;BME280;15053;48.618;10.024;2022-11-15T12:32:57;93653.84;;;16.59;50.09
27643;BME280;15053;48.618;10.024;2022-11-15T12:35:33;93652.19;;;16.67;48.68
27643;BME280;15053;48.618;10.024;2022-11-15T12:38:01;93646.16;;;16.82;47.82
27643;BME280;15053;48.618;10.024;2022-11-15T12:40:30;93643.44;;;16.94;47.58
27643;BME280;15053;48.618;10.024;2022-11-15T12:45:42;93638.81;;;17.06;46.96
27643;BME280;15053;48.618;10.024;2022-11-15T12:58:43;93630.75;;;16.37;49.05
27643;BME280;15053;48.618;10.024;2022-11-15T13:01:10;93630.66;;;16.18;49.87
27643;BME280;15053;48.618;10.024;2022-11-15T13:06:54;93619.72;;;15.88;51.20
27643;BME280;15053;48.618;10.024;2022-11-15T13:11:55;93621.78;;;15.55;52.90
27643;BME280;15053;48.618;10.024;2022-11-15T13:17:21;93610.72;;;15.21;54.14
27643;BME280;15053;48.618;10.024;2022-11-15T13:19:57;93616.31;;;15.08;54.81
27643;BME280;15053;48.618;10.024;2022-11-15T13:22:32;93613.25;;;14.94;55.78
27643;BME280;15053;48.618;10.024;2022-11-15T13:25:46;93623.19;;;14.76;56.54
27643;BME280;15053;48.618;10.024;2022-11-15T13:33:16;93615.75;;;14.42;56.00
27643;BME280;15053;48.618;10.024;2022-11-15T13:35:52;93622.59;;;14.34;55.87
27643;BME280;15053;48.618;10.024;2022-11-15T13:38:32;93617.75;;;14.24;56.66
27643;BME280;15053;48.618;10.024;2022-11-15T13:41:20;93615.66;;;14.17;57.28
27643;BME280;15053;48.618;10.024;2022-11-15T13:43:48;93609.28;;;14.06;58.32
27643;BME280;15053;48.618;10.024;2022-11-15T13:46:28;93614.44;;;14.03;59.93
27643;BME280;15053;48.618;10.024;2022-11-15T13:49:04;93608.00;;;14.00;60.74
27643;BME280;15053;48.618;10.024;2022-11-15T13:51:37;93607.00;;;14.05;61.28
27643;BME280;15053;48.618;10.024;2022-11-15T13:54:20;93596.97;;;14.07;60.88
27643;BME280;15053;48.618;10.024;2022-11-15T13:56:53;93589.25;;;14.10;60.52
27643;BME280;15053;48.618;10.024;2022-11-15T13:59:25;93589.66;;;14.12;60.98
27643;BME280;15053;48.618;10.024;2022-11-15T14:01:54;93586.28;;;14.12;60.58
27643;BME280;15053;48.618;10.024;2022-11-15T14:04:23;93586.84;;;14.05;60.77
27643;BME280;15053;48.618;10.024;2022-11-15T14:06:56;93589.66;;;14.00;60.83
27643;BME280;15053;48.618;10.024;2022-11-15T14:09:34;93586.56;;;13.98;60.62
27643;BME280;15053;48.618;10.024;2022-11-15T14:12:20;93585.28;;;13.92;60.66
27643;BME280;15053;48.618;10.024;2022-11-15T14:14:48;93577.94;;;13.86;60.80
27643;BME280;15053;48.618;10.024;2022-11-15T14:17:33;93581.41;;;13.78;61.02
27643;BME280;15053;48.618;10.024;2022-11-15T14:20:18;93578.88;;;13.69;61.09
27643;BME280;15053;48.618;10.024;2022-11-15T14:22:57;93575.56;;;13.60;62.03
27643;BME280;15053;48.618;10.024;2022-11-15T14:25:25;93570.72;;;13.50;62.04
27643;BME280;15053;48.618;10.024;2022-11-15T14:30:39;93560.41;;;13.33;64.12
27643;BME280;15053;48.618;10.024;2022-11-15T14:33:22;93554.50;;;13.24;65.23
27643;BME280;15053;48.618;10.024;2022-11-15T14:35:50;93552.88;;;13.11;66.76
27643;BME280;15053;48.618;10.024;2022-11-15T14:38:17;93546.81;;;12.98;67.48
27643;BME280;15053;48.618;10.024;2022-11-15T14:40:43;93552.41;;;12.88;68.67
27643;BME280;15053;48.618;10.024;2022-11-15T14:43:11;93556.16;;;12.78;69.90
27643;BME280;15053;48.618;10.024;2022-11-15T14:45:38;93547.16;;;12.67;70.71
27643;BME280;15053;48.618;10.024;2022-11-15T14:48:05;93545.34;;;12.59;71.23
27643;BME280;15053;48.618;10.024;2022-11-15T14:50:33;93542.47;;;12.52;71.58
27643;BME280;15053;48.618;10.024;2022-11-15T14:53:00;93537.59;;;12.42;72.03
27643;BME280;15053;48.618;10.024;2022-11-15T14:55:29;93540.25;;;12.33;72.64
27643;BME280;15053;48.618;10.024;2022-11-15T14:57:58;93536.16;;;12.24;72.92
27643;BME280;15053;48.618;10.024;2022-11-15T15:00:25;93532.50;;;12.16;73.87
27643;BME280;15053;48.618;10.024;2022-11-15T15:02:57;93531.00;;;12.07;74.20
27643;BME280;15053;48.618;10.024;2022-11-15T15:05:35;93523.97;;;11.99;75.10
27643;BME280;15053;48.618;10.024;2022-11-15T15:08:02;93518.97;;;11.85;75.36
27643;BME280;15053;48.618;10.024;2022-11-15T15:10:38;93520.19;;;11.79;75.80
27643;BME280;15053;48.618;10.024;2022-11-15T15:13:21;93506.09;;;11.71;75.86
27643;BME280;15053;48.618;10.024;2022-11-15T15:15:49;93517.63;;;11.62;76.40
27643;BME280;15053;48.618;10.024;2022-11-15T15:18:17;93522.09;;;11.53;77.11
27643;BME280;15053;48.618;10.024;2022-11-15T15:20:51;93517.03;;;11.48;77.39
27643;BME280;15053;48.618;10.024;2022-11-15T15:23:20;93516.88;;;11.44;77.04
27643;BME280;15053;48.618;10.024;2022-11-15T15:25:47;93502.19;;;11.40;77.44
27643;BME280;15053;48.618;10.024;2022-11-15T15:28:15;93503.09;;;11.35;77.05
27643;BME280;15053;48.618;10.024;2022-11-15T15:30:41;93509.41;;;11.34;77.54
27643;BME280;15053;48.618;10.024;2022-11-15T15:33:08;93504.78;;;11.31;77.49
27643;BME280;15053;48.618;10.024;2022-11-15T15:35:34;93497.25;;;11.30;77.36
27643;BME280;15053;48.618;10.024;2022-11-15T15:38:01;93504.31;;;11.29;77.25
27643;BME280;15053;48.618;10.024;2022-11-15T15:40:31;93498.50;;;11.23;77.70
27643;BME280;15053;48.618;10.024;2022-11-15T15:42:59;93501.44;;;11.22;77.08
27643;BME280;15053;48.618;10.024;2022-11-15T15:45:26;93499.44;;;11.19;77.16
27643;BME280;15053;48.618;10.024;2022-11-15T15:47:53;93498.22;;;11.16;77.37
27643;BME280;15053;48.618;10.024;2022-11-15T15:52:57;93493.00;;;11.08;77.63
27643;BME280;15053;48.618;10.024;2022-11-15T15:55:25;93485.19;;;11.08;78.15
27643;BME280;15053;48.618;10.024;2022-11-15T15:57:51;93482.91;;;11.06;78.10
27643;BME280;15053;48.618;10.024;2022-11-15T16:00:19;93476.91;;;11.06;77.84
27643;BME280;15053;48.618;10.024;2022-11-15T16:02:46;93470.16;;;11.05;77.96